Time;durP1;ratioP1;P1;durP2;ratioP2;P2;SDS_P1;SDS_P2;PMS_P1;PMS_P2;Temp;Humidity;BMP_temperature;BMP_pressure;BME280_temperature;BME280_humidity;BME280_pressure;Samples;Min_cycle;Max_cycle;Signal;HPM_P1;HPM_P2
2022/10/17 00:00:38;;;;;;;9.40;2.85;;;;;;;10.12;100.00;97258.41;4994836;28;20100;-67
2022/10/17 00:03:04;;;;;;;11.43;3.85;;;;;;;10.26;100.00;97260.75;4999582;28;20034;-65
2022/10/17 00:05:30;;;;;;;9.50;3.00;;;;;;;10.29;100.00;97265.50;4993139;28;20037;-68
2022/10/17 00:07:55;;;;;;;11.20;3.08;;;;;;;10.32;100.00;97258.56;4992272;28;20127;-68
2022/10/17 00:10:21;;;;;;;13.02;2.80;;;;;;;10.37;100.00;97268.44;4992464;28;20037;-68
2022/10/17 00:12:49;;;;;;;8.52;3.10;;;;;;;10.38;100.00;97265.38;4992620;28;20483;-67
2022/10/17 00:15:16;;;;;;;8.20;2.22;;;;;;;10.36;100.00;97267.66;4992341;28;20069;-68
2022/10/17 00:17:41;;;;;;;4.05;2.50;;;;;;;10.34;100.00;97264.47;4992169;28;20023;-68
2022/10/17 00:20:07;;;;;;;6.93;2.75;;;;;;;10.24;100.00;97268.47;4992475;28;20076;-68
2022/10/17 00:22:33;;;;;;;11.27;2.53;;;;;;;9.98;100.00;97273.66;4991975;28;20079;-68
2022/10/17 00:24:58;;;;;;;9.40;3.15;;;;;;;9.62;100.00;97269.91;4990790;28;20034;-68
2022/10/17 00:27:23;;;;;;;5.35;2.88;;;;;;;9.31;100.00;97271.31;4991733;28;20043;-68
2022/10/17 00:29:50;;;;;;;8.65;3.67;;;;;;;9.14;100.00;97277.81;4991929;28;20058;-67
2022/10/17 00:32:16;;;;;;;7.28;2.80;;;;;;;9.24;100.00;97279.28;4991908;28;20399;-67
2022/10/17 00:34:41;;;;;;;16.88;3.67;;;;;;;9.39;100.00;97278.59;4991981;28;20038;-67
2022/10/17 00:37:07;;;;;;;7.60;2.80;;;;;;;9.49;100.00;97283.59;4991897;28;20022;-67
2022/10/17 00:39:32;;;;;;;4.65;2.90;;;;;;;9.65;100.00;97282.84;4991880;28;20030;-67
2022/10/17 00:41:57;;;;;;;7.57;3.38;;;;;;;9.70;100.00;97280.66;4991629;28;20034;-67
2022/10/17 00:44:29;;;;;;;6.15;3.42;;;;;;;9.81;100.00;97282.94;4991907;28;20178;-67
2022/10/17 00:46:55;;;;;;;8.30;3.28;;;;;;;9.85;100.00;97290.09;4991616;28;20105;-68
2022/10/17 00:49:22;;;;;;;13.30;3.53;;;;;;;9.89;100.00;97285.53;5005484;28;20080;-67
2022/10/17 00:51:52;;;;;;;11.95;3.10;;;;;;;9.88;100.00;97278.44;4977947;28;20030;-68
2022/10/17 00:54:21;;;;;;;11.88;3.15;;;;;;;9.92;100.00;97279.38;4995322;28;20031;-67
2022/10/17 00:56:48;;;;;;;7.73;2.57;;;;;;;9.85;100.00;97275.59;4996376;28;20023;-68
2022/10/17 00:59:16;;;;;;;4.95;2.63;;;;;;;9.84;100.00;97280.28;4993640;28;20031;-67
2022/10/17 01:01:50;;;;;;;4.63;2.72;;;;;;;9.88;100.00;97272.19;4992543;28;20092;-66
2022/10/17 01:04:17;;;;;;;8.60;2.45;;;;;;;9.93;100.00;97286.41;4991675;28;20101;-68
2022/10/17 01:06:42;;;;;;;3.90;2.33;;;;;;;9.83;100.00;97291.59;4991267;28;20558;-68
2022/10/17 01:09:08;;;;;;;4.38;2.25;;;;;;;9.85;100.00;97292.03;4991328;28;20046;-68
2022/10/17 01:11:55;;;;;;;3.40;2.17;;;;;;;9.75;100.00;97283.16;4990235;28;20035;-68
2022/10/17 01:14:29;;;;;;;3.97;2.13;;;;;;;9.75;100.00;97285.13;4991448;28;20061;-68
2022/10/17 01:17:24;;;;;;;11.05;3.05;;;;;;;9.80;100.00;97286.81;4991380;28;20054;-67
2022/10/17 01:20:22;;;;;;;10.38;3.22;;;;;;;9.21;100.00;97280.00;4991406;28;20109;-68
2022/10/17 01:22:50;;;;;;;9.38;3.28;;;;;;;8.87;100.00;97288.31;4991191;28;20058;-67
2022/10/17 01:25:21;;;;;;;8.45;3.88;;;;;;;8.61;100.00;97286.69;4990033;28;20042;-67
2022/10/17 01:28:06;;;;;;;9.23;3.60;;;;;;;8.59;100.00;97283.50;4989947;28;20031;-68
2022/10/17 01:31:05;;;;;;;8.02;3.22;;;;;;;8.64;100.00;97284.41;4973980;28;20125;-67
2022/10/17 01:33:55;;;;;;;15.40;3.97;;;;;;;8.67;100.00;97272.81;4991302;28;20117;-68
2022/10/17 01:36:35;;;;;;;10.23;3.42;;;;;;;8.86;100.00;97274.97;4989988;28;20029;-67
2022/10/17 01:39:11;;;;;;;9.82;3.25;;;;;;;9.04;100.00;97268.16;4991102;28;20092;-67
2022/10/17 01:41:43;;;;;;;7.70;3.28;;;;;;;9.19;100.00;97261.19;4991528;28;20035;-67
2022/10/17 01:44:18;;;;;;;7.00;3.20;;;;;;;9.24;100.00;97263.69;4991112;28;20041;-67
2022/10/17 01:46:51;;;;;;;5.20;2.88;;;;;;;9.25;100.00;97264.50;4991084;28;20031;-68
2022/10/17 01:49:21;;;;;;;8.55;2.97;;;;;;;9.24;100.00;97247.31;4991086;28;20568;-67
2022/10/17 01:52:01;;;;;;;11.38;3.40;;;;;;;9.02;100.00;97248.59;4990941;28;20034;-67
2022/10/17 01:54:34;;;;;;;6.93;2.92;;;;;;;8.73;100.00;97247.69;4991126;28;20061;-67
2022/10/17 01:57:04;;;;;;;5.25;2.95;;;;;;;8.59;100.00;97248.00;4991107;28;20097;-67
2022/10/17 01:59:37;;;;;;;;;;;;;;;8.64;100.00;97246.97;4991499;28;20549;-67
2022/10/17 02:02:04;;;;;;;8.20;2.88;;;;;;;8.69;100.00;97245.97;4991369;28;19920;-67
2022/10/17 02:04:29;;;;;;;6.57;3.40;;;;;;;8.67;100.00;97240.84;4991277;28;20073;-68
2022/10/17 02:06:54;;;;;;;7.60;2.70;;;;;;;8.64;100.00;97246.97;4992383;28;20392;-67
2022/10/17 02:09:25;;;;;;;4.60;2.60;;;;;;;8.71;100.00;97251.88;5000621;28;20038;-67
2022/10/17 02:12:12;;;;;;;11.43;2.38;;;;;;;8.74;100.00;97251.19;4996276;28;20069;-68
2022/10/17 02:14:53;;;;;;;7.75;2.85;;;;;;;8.67;100.00;97256.44;4994321;28;20058;-67
2022/10/17 02:17:36;;;;;;;8.15;2.63;;;;;;;8.55;100.00;97263.47;4997250;28;20031;-68
2022/10/17 02:20:24;;;;;;;10.80;2.95;;;;;;;8.56;100.00;97256.88;4998171;28;20483;-67
2022/10/17 02:22:57;;;;;;;8.52;2.70;;;;;;;8.62;100.00;97262.91;4997682;28;20081;-67
2022/10/17 02:25:40;;;;;;;4.35;2.40;;;;;;;8.76;100.00;97255.19;4995121;28;20042;-67
2022/10/17 02:28:51;;;;;;;5.82;2.78;;;;;;;8.89;100.00;97264.16;4995377;28;20030;-68
2022/10/17 02:31:21;;;;;;;9.50;2.60;;;;;;;8.88;100.00;97262.59;4994393;28;20038;-67
2022/10/17 02:34:05;;;;;;;10.10;3.53;;;;;;;8.88;100.00;97261.81;4993017;28;20069;-67
2022/10/17 02:36:39;;;;;;;20.80;3.42;;;;;;;8.85;100.00;97265.22;4993967;28;20049;-67
2022/10/17 02:39:08;;;;;;;6.43;2.45;;;;;;;8.78;100.00;97265.75;4994263;28;20105;-67
2022/10/17 02:41:37;;;;;;;7.20;2.63;;;;;;;8.86;100.00;97267.59;4993849;28;20032;-67
2022/10/17 02:44:05;;;;;;;5.95;3.63;;;;;;;9.01;100.00;97265.31;4993929;28;20066;-67
2022/10/17 02:46:32;;;;;;;7.80;2.40;;;;;;;8.99;100.00;97268.38;4993583;28;20069;-66
2022/10/17 02:49:04;;;;;;;8.45;2.38;;;;;;;8.98;100.00;97262.13;4993728;28;20035;-66
2022/10/17 02:52:02;;;;;;;6.53;2.20;;;;;;;9.02;100.00;97262.25;4993843;28;20030;-66
2022/10/17 02:54:38;;;;;;;10.13;2.28;;;;;;;9.02;100.00;97272.38;4985567;28;20045;-66
2022/10/17 02:57:15;;;;;;;2.88;2.20;;;;;;;8.96;100.00;97280.00;4993415;28;20034;-68
2022/10/17 02:59:43;;;;;;;11.05;2.55;;;;;;;8.75;100.00;97277.38;4993448;28;20061;-67
2022/10/17 03:02:09;;;;;;;5.30;2.55;;;;;;;8.34;100.00;97268.97;4993244;28;20042;-68
2022/10/17 03:04:34;;;;;;;14.00;4.45;;;;;;;8.06;100.00;97262.53;4993371;28;20514;-67
2022/10/17 03:07:00;;;;;;;12.75;6.70;;;;;;;7.83;100.00;97262.91;4992919;28;20050;-68
2022/10/17 03:09:25;;;;;;;6.32;3.70;;;;;;;7.76;100.00;97268.91;4993663;28;20034;-67
2022/10/17 03:11:51;;;;;;;9.65;3.42;;;;;;;7.84;100.00;97278.13;4993774;28;20030;-67
2022/10/17 03:14:16;;;;;;;8.80;3.95;;;;;;;7.96;100.00;97274.66;4993632;28;20443;-67
2022/10/17 03:16:42;;;;;;;5.53;3.58;;;;;;;7.93;100.00;97278.06;4993089;28;20030;-67
2022/10/17 03:19:08;;;;;;;7.25;3.67;;;;;;;7.93;100.00;97276.13;4993095;28;20033;-68
2022/10/17 03:21:35;;;;;;;6.72;3.50;;;;;;;8.16;100.00;97281.22;4992753;28;20439;-68
2022/10/17 03:24:01;;;;;;;5.53;3.50;;;;;;;8.29;100.00;97282.06;4992620;28;20109;-67
2022/10/17 03:26:28;;;;;;;10.70;3.55;;;;;;;8.37;100.00;97281.97;4995581;28;20068;-67
2022/10/17 03:28:54;;;;;;;10.95;3.25;;;;;;;8.44;100.00;97283.34;4992800;28;20080;-67
2022/10/17 03:31:19;;;;;;;7.32;3.25;;;;;;;8.35;100.00;97283.41;4991475;28;20403;-67
2022/10/17 03:33:45;;;;;;;7.32;3.30;;;;;;;8.14;100.00;97295.19;4993129;28;20101;-67
2022/10/17 03:36:13;;;;;;;6.30;3.00;;;;;;;8.06;100.00;97296.06;5002745;28;20038;-67
2022/10/17 03:38:39;;;;;;;8.15;2.80;;;;;;;8.00;100.00;97300.94;4989205;28;20049;-67
2022/10/17 03:41:05;;;;;;;5.72;2.83;;;;;;;7.90;100.00;97300.53;4988694;28;20023;-66
2022/10/17 03:43:31;;;;;;;7.05;3.30;;;;;;;7.86;100.00;97300.41;4986324;28;20037;-66
2022/10/17 03:45:58;;;;;;;7.88;3.58;;;;;;;8.06;100.00;97306.97;4991217;28;20117;-67
2022/10/17 03:48:24;;;;;;;11.35;3.25;;;;;;;8.20;100.00;97310.22;4990381;28;20072;-67
2022/10/17 03:50:50;;;;;;;8.80;3.20;;;;;;;8.11;100.00;97303.25;4995209;28;20678;-67
2022/10/17 03:53:16;;;;;;;5.07;2.78;;;;;;;8.20;100.00;97312.94;5000663;28;20044;-66
2022/10/17 03:55:41;;;;;;;8.52;3.05;;;;;;;8.09;100.00;97316.44;4997454;28;20037;-66
2022/10/17 03:58:06;;;;;;;10.05;2.90;;;;;;;7.99;100.00;97317.63;4996270;28;20041;-65
2022/10/17 04:00:34;;;;;;;10.00;2.60;;;;;;;8.03;100.00;97322.09;4992540;28;20108;-68
2022/10/17 04:03:00;;;;;;;6.35;3.13;;;;;;;7.90;100.00;97323.16;4992416;28;20027;-68
2022/10/17 04:05:25;;;;;;;6.65;3.33;;;;;;;7.46;100.00;97314.53;4991644;28;20549;-69
2022/10/17 04:07:51;;;;;;;9.27;3.63;;;;;;;7.30;100.00;97311.56;4992396;28;20031;-66
2022/10/17 04:10:16;;;;;;;8.50;3.97;;;;;;;7.37;100.00;97324.69;4990685;28;20034;-66
2022/10/17 04:12:42;;;;;;;8.02;4.30;;;;;;;7.27;100.00;97323.13;4992025;28;20030;-68
2022/10/17 04:15:08;;;;;;;11.23;4.65;;;;;;;7.22;100.00;97326.03;4998471;28;20038;-66
2022/10/17 04:17:33;;;;;;;8.65;5.35;;;;;;;7.23;100.00;97324.91;4994480;28;20324;-68
2022/10/17 04:19:59;;;;;;;9.57;6.82;;;;;;;7.34;100.00;97328.06;4992099;28;20418;-68
2022/10/17 04:22:24;;;;;;;14.40;5.80;;;;;;;7.53;100.00;97333.09;4992097;28;20038;-68
2022/10/17 04:24:49;;;;;;;16.27;5.07;;;;;;;7.54;100.00;97332.72;4992020;28;20491;-68
2022/10/17 04:27:15;;;;;;;13.52;6.07;;;;;;;7.54;100.00;97342.84;4991169;28;20038;-68
2022/10/17 04:29:40;;;;;;;7.97;4.53;;;;;;;7.78;100.00;97342.22;4991815;28;20379;-68
2022/10/17 04:32:06;;;;;;;15.48;5.18;;;;;;;7.61;100.00;97345.84;4991629;28;20050;-68
2022/10/17 04:34:31;;;;;;;7.15;4.05;;;;;;;7.48;100.00;97350.41;4991698;28;20034;-68
2022/10/17 04:36:56;;;;;;;12.50;4.20;;;;;;;7.65;100.00;97341.31;4990477;28;20114;-66
2022/10/17 04:39:22;;;;;;;7.78;4.03;;;;;;;7.73;100.00;97351.38;4991576;28;20054;-67
2022/10/17 04:41:47;;;;;;;9.30;3.97;;;;;;;7.58;100.00;97349.22;4991657;28;20034;-66
2022/10/17 04:44:12;;;;;;;13.88;3.67;;;;;;;7.62;100.00;97353.69;4992061;28;20038;-67
2022/10/17 04:46:38;;;;;;;9.10;3.47;;;;;;;7.54;100.00;97356.47;4991986;28;20030;-66
2022/10/17 04:49:04;;;;;;;6.55;3.75;;;;;;;7.37;100.00;97350.00;4991550;28;20053;-66
2022/10/17 04:51:29;;;;;;;8.20;3.70;;;;;;;7.30;100.00;97354.38;4991371;28;20037;-66
2022/10/17 04:53:54;;;;;;;5.93;3.90;;;;;;;7.13;100.00;97355.25;4991691;28;20038;-66
2022/10/17 04:56:22;;;;;;;5.53;3.50;;;;;;;7.19;100.00;97352.03;4990020;28;20062;-66
2022/10/17 04:58:49;;;;;;;8.20;3.38;;;;;;;7.19;100.00;97359.41;4993613;28;20039;-66
2022/10/17 05:01:19;;;;;;;6.55;3.05;;;;;;;7.15;100.00;97353.00;4995029;28;20041;-66
2022/10/17 05:03:45;;;;;;;16.25;3.60;;;;;;;7.18;100.00;97360.50;4993043;28;20030;-66
2022/10/17 05:06:17;;;;;;;9.25;3.50;;;;;;;6.87;100.00;97364.34;4992393;28;20026;-68
2022/10/17 05:08:43;;;;;;;10.02;3.40;;;;;;;6.77;100.00;97365.50;4992251;28;20030;-67
2022/10/17 05:11:25;;;;;;;4.28;2.92;;;;;;;6.86;100.00;97370.88;4991545;28;20046;-68
2022/10/17 05:13:53;;;;;;;5.63;2.80;;;;;;;7.04;100.00;97366.19;4994284;28;20157;-69
2022/10/17 05:16:19;;;;;;;4.65;3.10;;;;;;;7.13;100.00;97377.03;4996189;28;20030;-69
2022/10/17 05:18:48;;;;;;;5.60;3.50;;;;;;;7.10;100.00;97369.53;4996157;28;20037;-67
2022/10/17 05:21:14;;;;;;;5.53;2.67;;;;;;;7.15;100.00;97370.16;4991289;28;20035;-69
2022/10/17 05:23:39;;;;;;;4.72;2.53;;;;;;;7.31;100.00;97373.13;4991264;28;20592;-68
2022/10/17 05:26:04;;;;;;;13.80;2.90;;;;;;;7.42;100.00;97379.78;4990511;28;20026;-69
2022/10/17 05:28:30;;;;;;;7.82;2.90;;;;;;;7.53;100.00;97377.50;4990962;28;20037;-68
2022/10/17 05:30:55;;;;;;;5.65;3.80;;;;;;;7.41;100.00;97371.94;4990796;28;20057;-68
2022/10/17 05:33:21;;;;;;;11.80;3.80;;;;;;;6.85;100.00;97374.75;4990188;28;20033;-69
2022/10/17 05:35:47;;;;;;;9.10;4.53;;;;;;;6.64;100.00;97372.72;4991085;28;20369;-69
2022/10/17 05:38:12;;;;;;;8.48;4.50;;;;;;;6.61;100.00;97376.09;4990831;28;20081;-69
2022/10/17 05:40:38;;;;;;;10.88;4.97;;;;;;;6.60;100.00;97379.16;4991024;28;20089;-69
2022/10/17 05:43:03;;;;;;;12.30;4.72;;;;;;;6.60;100.00;97373.72;4991066;28;20027;-69
2022/10/17 05:45:29;;;;;;;9.15;5.45;;;;;;;6.59;100.00;97378.34;4989996;28;20038;-68
2022/10/17 05:47:54;;;;;;;18.02;6.20;;;;;;;6.63;100.00;97368.41;4990304;28;20042;-68
2022/10/17 05:50:20;;;;;;;11.93;5.78;;;;;;;6.97;100.00;97371.34;4995003;28;20065;-68
2022/10/17 05:52:46;;;;;;;49.72;7.68;;;;;;;7.12;100.00;97354.47;4994848;28;20134;-68
2022/10/17 05:55:11;;;;;;;40.95;8.00;;;;;;;7.07;100.00;97365.53;4996032;28;20105;-68
2022/10/17 05:57:37;;;;;;;61.05;9.30;;;;;;;7.08;100.00;97370.66;4992733;28;20495;-68
2022/10/17 06:00:04;;;;;;;68.75;10.27;;;;;;;7.13;100.00;97382.50;4994253;28;20035;-68
2022/10/17 06:02:29;;;;;;;26.38;9.48;;;;;;;7.26;100.00;97382.28;4994475;28;20026;-68
2022/10/17 06:04:55;;;;;;;19.52;8.75;;;;;;;7.35;100.00;97389.63;4994739;28;20113;-68
2022/10/17 06:07:20;;;;;;;40.25;14.10;;;;;;;7.63;100.00;97396.19;4992727;28;20090;-67
2022/10/17 06:09:45;;;;;;;23.60;9.00;;;;;;;7.69;100.00;97402.25;4994272;28;20062;-67
2022/10/17 06:12:11;;;;;;;35.13;14.10;;;;;;;7.73;100.00;97403.19;4994319;28;20407;-67
2022/10/17 06:14:36;;;;;;;36.50;11.38;;;;;;;7.85;100.00;97416.09;4994605;28;20030;-68
2022/10/17 06:17:02;;;;;;;51.30;9.52;;;;;;;7.81;100.00;97415.16;4994236;28;20530;-67
2022/10/17 06:19:27;;;;;;;56.80;9.27;;;;;;;7.76;100.00;97416.16;4993310;28;20054;-68
2022/10/17 06:21:53;;;;;;;54.90;9.45;;;;;;;7.37;100.00;97409.94;4997848;28;20424;-67
2022/10/17 06:24:19;;;;;;;67.88;8.90;;;;;;;7.23;100.00;97420.28;4998755;28;20031;-68
2022/10/17 06:26:46;;;;;;;32.83;7.63;;;;;;;7.36;100.00;97415.72;4993783;28;20034;-68
2022/10/17 06:29:11;;;;;;;44.08;7.68;;;;;;;7.59;100.00;97424.44;4994329;28;20489;-68
2022/10/17 06:31:37;;;;;;;71.93;8.02;;;;;;;7.36;100.00;97421.19;4994122;28;20146;-67
2022/10/17 06:34:02;;;;;;;11.50;6.88;;;;;;;7.72;100.00;97426.09;4994006;28;20027;-67
2022/10/17 06:36:28;;;;;;;13.30;7.30;;;;;;;8.22;100.00;97430.75;4993989;28;20034;-67
2022/10/17 06:38:53;;;;;;;11.55;7.53;;;;;;;8.97;100.00;97434.59;4993865;28;20053;-66
2022/10/17 06:41:18;;;;;;;15.15;6.43;;;;;;;9.89;100.00;97440.69;4993156;28;20066;-67
2022/10/17 06:43:45;;;;;;;14.43;6.60;;;;;;;10.77;100.00;97438.19;4976783;28;20122;-68
2022/10/17 06:46:12;;;;;;;14.75;5.50;;;;;;;11.77;100.00;97445.41;4977190;28;20105;-67
2022/10/17 06:48:37;;;;;;;8.73;5.00;;;;;;;11.97;100.00;97449.03;4966487;28;20031;-67
2022/10/17 06:51:05;;;;;;;10.52;3.70;;;;;;;13.38;100.00;97455.41;4982977;28;20101;-66
2022/10/17 06:53:32;;;;;;;9.57;3.50;;;;;;;13.76;100.00;97459.19;4984427;28;20045;-66
2022/10/17 06:56:02;;;;;;;8.70;2.80;;;;;;;14.43;100.00;97472.38;4983277;28;20046;-66
2022/10/17 06:58:29;;;;;;;16.98;3.55;;;;;;;15.19;100.00;97478.81;4958907;28;20035;-66
2022/10/17 07:01:02;;;;;;;5.13;2.83;;;;;;;15.35;100.00;97482.13;4964984;28;20050;-65
2022/10/17 07:03:28;;;;;;;10.70;3.30;;;;;;;15.04;100.00;97480.63;4974724;28;20081;-65
2022/10/17 07:05:54;;;;;;;6.30;2.90;;;;;;;14.88;100.00;97478.09;4984453;28;20042;-66
2022/10/17 07:08:20;;;;;;;4.15;2.55;;;;;;;14.68;100.00;97482.97;4979928;28;20046;-66
2022/10/17 07:10:47;;;;;;;7.68;2.70;;;;;;;14.51;100.00;97471.31;4983939;28;20069;-67
2022/10/17 07:13:12;;;;;;;7.43;2.65;;;;;;;14.49;100.00;97484.63;4978372;28;20399;-67
2022/10/17 07:15:38;;;;;;;2.90;2.15;;;;;;;14.47;100.00;97489.72;4984379;28;20043;-67
2022/10/17 07:18:04;;;;;;;4.68;2.88;;;;;;;14.66;100.00;97488.06;4982305;28;20385;-65
2022/10/17 07:20:30;;;;;;;3.83;2.00;;;;;;;14.86;100.00;97506.03;4984872;28;20794;-67
2022/10/17 07:22:55;;;;;;;3.42;2.13;;;;;;;14.90;100.00;97492.28;4985837;28;20108;-65
2022/10/17 07:25:21;;;;;;;12.27;2.78;;;;;;;15.14;100.00;97499.25;4980324;28;20049;-66
2022/10/17 07:27:48;;;;;;;4.20;1.85;;;;;;;15.26;100.00;97503.72;4983186;28;20052;-67
2022/10/17 07:30:13;;;;;;;5.68;1.83;;;;;;;15.82;100.00;97510.19;4978548;28;20042;-68
2022/10/17 07:32:39;;;;;;;5.85;1.98;;;;;;;16.34;100.00;97505.47;4984620;28;20145;-67
2022/10/17 07:35:04;;;;;;;8.20;2.30;;;;;;;16.56;100.00;97511.91;4979817;28;20035;-67
2022/10/17 07:37:30;;;;;;;17.70;2.92;;;;;;;16.59;100.00;97507.59;4984323;28;20043;-67
2022/10/17 07:39:56;;;;;;;10.20;3.80;;;;;;;17.10;100.00;97514.94;4982333;28;20403;-67
2022/10/17 07:42:22;;;;;;;4.95;2.20;;;;;;;17.07;100.00;97512.16;4981534;28;21388;-67
2022/10/17 07:44:48;;;;;;;4.70;1.83;;;;;;;17.27;100.00;97512.63;4987464;28;20043;-67
2022/10/17 07:47:13;;;;;;;6.10;1.80;;;;;;;17.85;99.48;97510.78;4982001;28;20049;-67
2022/10/17 07:49:43;;;;;;;6.75;1.90;;;;;;;18.33;94.37;97519.50;4990255;28;20471;-67
2022/10/17 07:52:15;;;;;;;2.25;1.75;;;;;;;18.63;92.19;97515.44;4980297;28;20050;-67
2022/10/17 07:54:41;;;;;;;6.22;1.70;;;;;;;18.04;92.88;97515.13;4984624;28;20105;-67
2022/10/17 07:57:07;;;;;;;5.78;1.58;;;;;;;18.86;89.75;97517.00;4979849;28;20034;-65
2022/10/17 07:59:33;;;;;;;10.07;2.20;;;;;;;18.88;90.27;97523.72;4984053;28;20397;-68
2022/10/17 08:01:59;;;;;;;5.65;2.90;;;;;;;18.06;94.27;97521.06;4984654;28;20073;-66
2022/10/17 08:04:25;;;;;;;3.97;1.83;;;;;;;17.39;100.00;97526.94;4958939;28;20101;-68
2022/10/17 08:06:52;;;;;;;3.47;1.98;;;;;;;17.82;100.00;97526.19;4964647;28;20057;-68
2022/10/17 08:09:17;;;;;;;6.60;1.80;;;;;;;18.42;97.90;97524.63;4959705;28;20070;-69
2022/10/17 08:11:43;;;;;;;13.63;2.42;;;;;;;18.14;96.98;97519.91;4962702;28;20073;-68
2022/10/17 08:14:12;;;;;;;6.07;2.05;;;;;;;18.33;93.52;97522.25;4958176;28;20074;-66
2022/10/17 08:16:38;;;;;;;;;;;;;;;18.52;93.59;97523.81;4964103;28;20049;-67
2022/10/17 08:19:03;;;;;;;4.28;1.80;;;;;;;20.06;85.69;97527.09;4960527;28;20283;-67
2022/10/17 08:21:29;;;;;;;3.78;1.60;;;;;;;19.94;84.46;97525.56;4962133;28;20189;-67
2022/10/17 08:23:56;;;;;;;9.82;4.00;;;;;;;21.18;79.34;97530.31;4964543;28;20586;-67
2022/10/17 08:26:21;;;;;;;7.75;2.00;;;;;;;20.55;81.33;97529.81;4958742;28;21534;-67
2022/10/17 08:28:47;;;;;;;10.18;2.03;;;;;;;20.14;85.42;97531.38;4972903;28;20042;-67
2022/10/17 08:31:17;;;;;;;3.85;2.05;;;;;;;21.04;80.44;97533.28;4962495;28;20038;-67
2022/10/17 08:33:43;;;;;;;3.95;2.25;;;;;;;21.82;74.87;97527.88;4966418;28;20042;-67
2022/10/17 08:36:12;;;;;;;4.53;1.95;;;;;;;21.27;77.28;97532.59;4958828;28;20047;-65
2022/10/17 08:38:38;;;;;;;4.75;2.13;;;;;;;21.43;74.66;97531.19;4964163;28;20043;-65
2022/10/17 08:41:33;;;;;;;3.53;1.85;;;;;;;21.85;74.63;97531.81;4959427;28;20042;-65
2022/10/17 08:44:14;;;;;;;2.88;1.77;;;;;;;22.76;69.58;97526.31;4961289;28;20039;-67
2022/10/17 08:46:42;;;;;;;5.47;2.22;;;;;;;22.65;69.75;97538.50;4981326;28;20058;-67
2022/10/17 08:49:15;;;;;;;8.53;2.10;;;;;;;22.67;67.86;97532.44;4977967;28;20220;-66
2022/10/17 08:51:50;;;;;;;6.40;3.08;;;;;;;22.29;72.59;97535.50;4986497;28;20110;-67
2022/10/17 08:54:20;;;;;;;3.28;1.60;;;;;;;23.11;68.88;97535.25;4986255;28;20038;-67
2022/10/17 08:56:52;;;;;;;4.85;1.90;;;;;;;22.73;67.67;97539.13;4990378;28;20045;-67
2022/10/17 08:59:25;;;;;;;7.57;2.20;;;;;;;23.42;67.04;97541.38;4978960;28;20177;-69
2022/10/17 09:02:13;;;;;;;4.72;2.47;;;;;;;22.67;67.13;97532.44;4984056;28;20050;-67
2022/10/17 09:04:44;;;;;;;5.32;1.83;;;;;;;22.40;70.40;97538.13;4983047;28;20053;-67
2022/10/17 09:07:26;;;;;;;8.30;2.00;;;;;;;22.40;72.78;97541.72;4973106;28;20042;-67
2022/10/17 09:10:10;;;;;;;5.43;1.95;;;;;;;23.18;70.81;97540.69;4987807;28;20516;-66
2022/10/17 09:13:02;;;;;;;6.50;2.00;;;;;;;23.00;71.29;97544.59;4960035;28;20205;-66
2022/10/17 09:15:42;;;;;;;8.07;3.90;;;;;;;22.81;72.32;97542.56;4969264;28;20045;-68
2022/10/17 09:18:36;;;;;;;4.75;3.20;;;;;;;22.46;75.13;97537.22;4977707;28;20069;-66
2022/10/17 09:21:24;;;;;;;7.57;3.80;;;;;;;21.74;78.05;97549.50;4979275;28;20042;-66
2022/10/17 09:23:56;;;;;;;6.63;3.92;;;;;;;21.65;79.79;97545.66;4978131;28;20368;-66
2022/10/17 09:26:23;;;;;;;6.25;3.67;;;;;;;21.14;83.31;97546.28;4977500;28;20192;-67
2022/10/17 09:28:57;;;;;;;5.80;4.07;;;;;;;20.78;86.57;97545.91;4984519;28;20076;-66
2022/10/17 09:31:39;;;;;;;6.57;4.40;;;;;;;20.31;90.96;97548.31;4986127;28;20231;-68
2022/10/17 09:34:09;;;;;;;7.15;3.67;;;;;;;20.32;91.65;97549.91;4989391;28;20038;-70
2022/10/17 09:36:37;;;;;;;5.30;3.70;;;;;;;20.70;88.21;97555.53;4989846;28;20104;-67
2022/10/17 09:39:21;;;;;;;6.47;3.40;;;;;;;20.80;85.22;97557.41;4984808;28;20125;-70
2022/10/17 09:41:52;;;;;;;5.32;3.70;;;;;;;20.50;89.40;97556.09;4985830;28;20049;-69
2022/10/17 09:44:34;;;;;;;7.45;3.72;;;;;;;19.88;95.19;97557.78;4981937;28;20054;-68
2022/10/17 09:47:24;;;;;;;6.07;4.00;;;;;;;20.35;93.08;97565.78;4985424;28;20047;-66
2022/10/17 09:49:50;;;;;;;8.57;4.50;;;;;;;20.51;92.06;97556.88;4968278;28;20043;-68
2022/10/17 09:52:21;;;;;;;7.15;4.28;;;;;;;19.65;97.16;97558.31;4978639;28;20129;-69
2022/10/17 09:55:01;;;;;;;9.45;4.00;;;;;;;20.05;96.44;97569.97;4984478;28;20038;-69
2022/10/17 09:57:27;;;;;;;4.60;3.70;;;;;;;20.08;97.07;97566.38;4981354;28;20034;-68
2022/10/17 10:00:04;;;;;;;6.07;3.75;;;;;;;19.91;100.00;97570.06;4986968;28;20061;-68
2022/10/17 10:02:32;;;;;;;7.72;4.25;;;;;;;20.19;98.82;97571.88;4978327;28;20047;-66
2022/10/17 10:05:15;;;;;;;5.82;3.95;;;;;;;20.93;92.45;97564.03;4984676;28;20038;-67
2022/10/17 10:07:43;;;;;;;5.43;4.15;;;;;;;21.02;91.79;97571.13;4984955;28;20594;-66
2022/10/17 10:10:27;;;;;;;8.82;3.55;;;;;;;21.73;87.82;97564.66;4981435;28;20819;-66
2022/10/17 10:13:12;;;;;;;5.13;3.33;;;;;;;21.92;84.74;97576.34;4984124;28;20046;-66
2022/10/17 10:15:40;;;;;;;5.70;3.50;;;;;;;21.60;81.64;97569.22;4975272;28;20092;-68
2022/10/17 10:18:24;;;;;;;6.47;3.58;;;;;;;21.73;85.86;97575.81;4977445;28;20050;-67
2022/10/17 10:21:14;;;;;;;5.00;3.58;;;;;;;21.74;84.94;97563.44;4985338;28;20050;-67
2022/10/17 10:23:42;;;;;;;4.38;3.50;;;;;;;21.81;86.89;97576.50;4984049;28;20165;-67
2022/10/17 10:26:10;;;;;;;4.07;2.90;;;;;;;22.11;84.06;97572.03;4982040;28;20138;-66
2022/10/17 10:28:36;;;;;;;7.57;3.38;;;;;;;22.59;81.71;97573.69;4991212;28;20062;-67
2022/10/17 10:31:06;;;;;;;5.78;3.83;;;;;;;21.74;85.04;97574.59;4988933;28;20108;-66
2022/10/17 10:33:41;;;;;;;6.63;3.38;;;;;;;22.19;83.12;97579.09;4997015;28;20070;-66
2022/10/17 10:36:06;;;;;;;8.73;3.65;;;;;;;22.32;80.55;97576.53;4963931;28;20035;-67
2022/10/17 10:38:33;;;;;;;4.82;3.58;;;;;;;22.25;81.53;97579.41;4986994;28;20064;-66
2022/10/17 10:41:02;;;;;;;6.43;3.50;;;;;;;21.95;82.66;97581.09;4991319;28;20077;-66
2022/10/17 10:43:37;;;;;;;6.57;3.30;;;;;;;20.94;88.74;97565.63;4973567;28;20046;-66
2022/10/17 10:46:17;;;;;;;7.22;3.08;;;;;;;;;;4982150;28;20435;-66
2022/10/17 10:48:52;;;;;;;9.30;3.58;;;;;;;20.93;90.00;97575.16;4984909;28;20038;-66
2022/10/17 10:51:25;;;;;;;5.70;3.67;;;;;;;21.35;87.36;97566.72;4978378;28;20042;-66
2022/10/17 10:54:02;;;;;;;7.28;4.50;;;;;;;21.53;86.23;97575.66;4982579;28;20046;-66
2022/10/17 10:56:38;;;;;;;4.95;2.97;;;;;;;21.57;87.21;97568.06;4980188;28;20212;-67
2022/10/17 10:59:17;;;;;;;4.18;3.00;;;;;;;21.55;87.08;97573.28;4980726;28;20070;-66
2022/10/17 11:01:58;;;;;;;10.57;3.13;;;;;;;;;;4984309;28;20542;-66
2022/10/17 11:04:32;;;;;;;4.32;2.97;;;;;;;21.47;86.31;97565.41;4979960;28;20913;-68
2022/10/17 11:07:22;;;;;;;9.55;2.80;;;;;;;21.73;86.85;97570.22;4982889;28;20104;-66
2022/10/17 11:10:12;;;;;;;4.75;3.50;;;;;;;21.47;85.71;97559.84;4970629;28;20044;-66
2022/10/17 11:12:41;;;;;;;5.60;3.08;;;;;;;21.20;88.43;97564.13;4977098;28;20058;-67
2022/10/17 11:15:24;;;;;;;8.27;4.07;;;;;;;21.52;87.33;97565.75;4979430;28;20069;-70
2022/10/17 11:18:05;;;;;;;5.65;3.58;;;;;;;21.91;85.30;97560.81;4983908;28;20513;-67
2022/10/17 11:20:57;;;;;;;7.15;3.25;;;;;;;22.00;84.49;97557.50;4983400;28;20046;-66
2022/10/17 11:23:37;;;;;;;4.25;2.70;;;;;;;22.21;82.89;97561.94;4978722;28;20960;-67
2022/10/17 11:26:10;;;;;;;5.43;2.67;;;;;;;21.18;88.65;97563.75;4977900;28;20539;-67
2022/10/17 11:28:36;;;;;;;7.47;3.22;;;;;;;21.91;86.26;97553.25;4985088;28;20042;-67
2022/10/17 11:31:16;;;;;;;6.55;3.20;;;;;;;22.25;84.76;97548.72;4983139;28;20502;-67
2022/10/17 11:33:49;;;;;;;7.80;2.78;;;;;;;22.61;80.60;97548.13;4984038;28;20046;-67
2022/10/17 11:36:18;;;;;;;2.85;2.08;;;;;;;23.27;77.45;97549.28;4977959;28;20042;-67
2022/10/17 11:38:49;;;;;;;4.05;2.17;;;;;;;23.63;75.91;97551.31;4984302;28;20058;-70
2022/10/17 11:41:26;;;;;;;7.20;2.20;;;;;;;23.56;75.86;97543.09;4977187;28;20038;-67
2022/10/17 11:44:19;;;;;;;4.68;2.45;;;;;;;23.38;77.45;97546.25;4983462;28;20047;-68
2022/10/17 11:46:49;;;;;;;3.13;2.30;;;;;;;23.23;76.90;97545.78;4981984;28;20113;-68